KDUA/DUA METAR and TAF weather

Enter ICAO airport designator
Station Type Date Time Source
KDUA METAR 2019/05/19 20:16 UTC NOAA

KDUA 192016Z AUTO 03007KT 10SM CLR 26/14 A2995 RMK AO2


Station Type Date Time Source
KDUA Decoded METAR 2019/05/19 20:16 UTC NOAA

Durant, Eaker Field Airport, OK, United States (KDUA) 33-56-32N 096-23-40W
May 19, 2019 - 04:16 PM EDT / 2019.05.19 2016 UTC
Wind: from the NNE (030 degrees) at 8 MPH (7 KT):0
Visibility: 10 mile(s):0
Sky conditions: clear
Temperature: 78 F (26 C)
Dew Point: 57 F (14 C)
Relative Humidity: 47%
Pressure (altimeter): 29.95 in. Hg (1014 hPa)
ob: KDUA 192016Z AUTO 03007KT 10SM CLR 26/14 A2995 RMK AO2
cycle: 20

Station Type Date Time Source
KDUA TAF UTC NOAA

Error!

Example: see airport list